Sinds 24 augustus testen wij een tweede fijnstof-sensor en we tonen beide sensors onder elkaar op de start-pagina.
Het weer levert geen direct gevaar op.    Er zijn geen waarschuwingen afgegeven.

Lokaal brand risico:
CBI


Regionaal brand risico: Meer informatie


Weerstation
Sluispark-LeuvenLeuven-Sluispark

Weerstation
Wilsele-PutkapelWilsele-Putkapel



Nabijgelegen vliegvelden - METAR rapporten

   
EBBR - Wilsele bij Leuven
Gewijzigd: 19-09-2020 17:20
Helder    Wind: ONO 9.3 km/h
Helder
Wind: Wind: ONO 9.3 km/h
Temperatuur: 26°C
Dauwpunt: 13°C
Vochtigheid: 45%
Barometer: 1015 hPa
Zicht: meer dan 10 km
Bewolking: Helder
EBBR 191520Z 06005KT 030V090 CAVOK 26/13 Q1015 NOSIG
EBAW - Antwerp
Gewijzigd: 19-09-2020 17:20
Helder    Wind: ONO 13 km/h
Helder
Wind: Wind: ONO 13 km/h
Temperatuur: 26°C
Dauwpunt: 12°C
Vochtigheid: 42%
Barometer: 1015 hPa
Zicht: meer dan 10 km
Bewolking: Helder
EBAW 191520Z 07007KT 050V110 CAVOK 26/12 Q1015 NOSIG
EBLG - Li├Ęge
Gewijzigd: 19-09-2020 17:20
Helder    Wind: NO 16.7 km/h
Helder
Wind: Wind: NO 16.7 km/h
Temperatuur: 27°C
Dauwpunt: 12°C
Vochtigheid: 39%
Barometer: 1015 hPa
Zicht: meer dan 10 km
Bewolking: Helder
EBLG 191520Z 04009KT CAVOK 27/12 Q1015 NOSIG
EBCV - Mons/Bergen
Gewijzigd: 19-09-2020 17:25
Licht bewolkt    Wind: ZZW 5.6 km/h
Licht bewolkt
Wind: Wind: ZZW 5.6 km/h
Temperatuur: 27°C
Gevoelstemperatuur: 27°C
Dauwpunt: 13°C
Vochtigheid: 42%
Barometer: 1013 hPa
Bewolking: Licht bewolkt
Zicht: meer dan 10 km
Bewolking: Licht bewolkt 3657.6 m
EBCV 191525Z AUTO 21003KT 9999 FEW120/// 27/13 Q1013 BLU
EHBK - Maastricht
Gewijzigd: 19-09-2020 17:25
Helder    Wind: NO 11.1 km/h
Helder
Wind: Wind: NO 11.1 km/h
Temperatuur: 27°C
Dauwpunt: 11°C
Vochtigheid: 37%
Barometer: 1015 hPa
Bewolking: Helder
Zicht: meer dan 10 km
Bewolking: Helder
EHBK 191525Z AUTO 05006KT 9999 NCD 27/11 Q1015 NOSIG
ELLX - Luxemburg
Gewijzigd: 19-09-2020 17:20
Helder    Wind: NNO 11.1 km/h
Helder
Wind: Wind: NNO 11.1 km/h
Temperatuur: 26°C
Dauwpunt: 13°C
Vochtigheid: 45%
Barometer: 1016 hPa
Zicht: meer dan 10 km
Bewolking: Helder
ELLX 191520Z 03006KT 350V060 CAVOK 26/13 Q1016 NOSIG
EBOS - Oostende
Gewijzigd: 19-09-2020 17:20
Helder    Wind: NNO 18.5 km/h
Helder
Wind: Wind: NNO 18.5 km/h
Temperatuur: 21°C
Dauwpunt: 14°C
Vochtigheid: 64%
Barometer: 1015 hPa
Zicht: meer dan 10 km
Bewolking: Helder
EBOS 191520Z 03010KT CAVOK 21/14 Q1015 NOSIG
  

Script ontwikkeld door  Saratoga-weather.org Aangepast voor de template door  Weerstation Leuven

U vindt ons ook hier:

UK Metoffice

WeatherCloud

European Weather Network

Weather Underground

Benelux Weather Network

AWEKAS

WeatherlinkIP

HAMweather, WeatherForYou, PWS Weather

Het Weer Aktueel

Apparatuur in gebruik:

Weer-station
Davis VP2 weatherstation

Weer-programma
Meteobridge

Weer-computer
D-Link DIR-505

Webleverancier
Robohost

Davis VP2 weatherstation

Meteobridge

D-Link DIR-505

Robohost